Lebork, Poland

8:59 AM CEST on September 02, 2014 (GMT +0200)
Luzino | Change Station
CLOSE
Current Station
Personal Weather Station
Location: Luzino, WOJ. POMORSKIE
Elevation: 331 ft
Nearby Weather Stations

Elev 331 ft 54.57 °N, 18.10 °E | Updated 4 minutes ago

Clear
Clear
59.7 °F
Feels Like 59.7 °F
N
5.4
Wind Variable Wind from ENE
Gusts 7.6 mph

Today
High -- | Low -- °F
--% Chance of Precip.
Yesterday
High -- | Low -- °F
Precip. -- in
5:57 AM 7:38 PM
Waxing Crescent, 48% visible
Pressure 30.18 in
Visibility -9999.0 miles
Clouds
Dew Point 60 °F
Humidity 99%
Rainfall 0.00 in
Snow Depth Not available.
UV Not available.
Pollen Not available.
Air Quality Not available.
Flu Activity Not available.
METAR EPGD 020630Z 08009KT CAVOK 15/11 Q1022

More Conditions Fewer Conditions

Pressure 30.18 in
Visibility -9999.0 miles
Clouds
Dew Point 60 °F
Humidity 99%
Rainfall 0.00 in
Snow Depth Not available.
UV Not available.
Pollen Not available.
Air Quality Not available.
Flu Activity Not available.
METAR EPGD 020630Z 08009KT CAVOK 15/11 Q1022

More Conditions Fewer Conditions

10-Day Weather Forecast

Almanac

Astronomy

Sep. 02, 2014 Rise Set
Actual Time 5:57 AM CEST 7:38 PM CEST
Civil Twilight 5:19 AM CEST 8:16 PM CEST
Nautical Twilight 4:32 AM CEST 9:02 PM CEST
Astronomical Twilight 3:39 AM CEST 9:55 PM CEST
Moon 2:32 PM CEST 11:08 PM CEST
Length of Visible Light 14h 56m
Length of Day
13h 41m
Tomorrow will be 4m 17s shorter.
Waxing Crescent, 48% of the Moon is Illuminated
Today
Waxing Crescent
Sep 2
First Quarter
Sep 8
Full
Sep 15
Last Quarter
Sep 24
New

Yesterday's Extremes

Country Highs Country Lows

Community

WunderPhotos

Upload Photos

1,749,589 photos uploaded!

WunderBlogs® & News

Nearby

Snow Depth

Not available.

Earthquake Activity

City Distance Mag. Time & Date
No recent earthquake activity has been reported nearby.
Minimum magnitude displayed is 2.5.

Coastal Water Temperatures

Place Temperature
No Stations Reporting

Nearby Weather Stations